createdAt,value
2018-05-14T00:02:08.192Z,2.45
2018-05-14T00:04:36.325Z,2.40
2018-05-14T00:07:04.660Z,2.28
2018-05-14T00:09:32.791Z,2.30
2018-05-14T00:12:00.921Z,2.47
2018-05-14T00:14:29.025Z,2.37
2018-05-14T00:16:57.151Z,2.50
2018-05-14T00:19:25.264Z,2.62
2018-05-14T00:21:53.398Z,2.40
2018-05-14T00:24:22.271Z,2.47
2018-05-14T00:26:50.372Z,2.60
2018-05-14T00:29:19.249Z,2.67
2018-05-14T00:31:48.130Z,2.20
2018-05-14T00:34:16.243Z,2.55
2018-05-14T00:36:44.357Z,3.05
2018-05-14T00:39:12.480Z,2.70
2018-05-14T00:41:41.356Z,2.53
2018-05-14T00:44:09.456Z,3.10
2018-05-14T00:46:38.333Z,2.58
2018-05-14T00:49:06.459Z,2.67
2018-05-14T00:51:34.583Z,2.70
2018-05-14T00:54:02.681Z,2.10
2018-05-14T00:56:31.558Z,2.47
2018-05-14T00:58:59.691Z,2.47
2018-05-14T01:01:27.788Z,2.80
2018-05-14T01:03:55.888Z,2.55
2018-05-14T01:06:24.009Z,2.67
2018-05-14T01:08:52.116Z,2.70
2018-05-14T01:11:20.220Z,2.75
2018-05-14T01:13:48.341Z,2.62
2018-05-14T01:16:16.445Z,2.92
2018-05-14T01:18:44.580Z,2.97
2018-05-14T01:21:12.690Z,2.53
2018-05-14T01:23:40.804Z,2.90
2018-05-14T01:26:08.932Z,2.95
2018-05-14T01:28:37.117Z,2.60
2018-05-14T01:31:05.220Z,2.65
2018-05-14T01:33:33.326Z,2.80
2018-05-14T01:36:02.197Z,2.85
2018-05-14T01:38:30.342Z,3.20
2018-05-14T01:40:58.436Z,2.80
2018-05-14T01:43:26.536Z,2.75
2018-05-14T01:45:54.663Z,3.03
2018-05-14T01:48:22.761Z,2.60
2018-05-14T01:50:50.874Z,3.08
2018-05-14T01:53:19.004Z,2.97
2018-05-14T01:55:47.104Z,2.87
2018-05-14T01:58:15.215Z,3.00
2018-05-14T02:00:44.143Z,2.78
2018-05-14T02:03:12.258Z,2.70
2018-05-14T02:05:40.393Z,2.78
2018-05-14T02:08:08.498Z,3.08
2018-05-14T02:10:36.601Z,2.92
2018-05-14T02:13:04.726Z,2.90
2018-05-14T02:15:32.836Z,2.97
2018-05-14T02:18:01.221Z,2.95
2018-05-14T02:20:29.335Z,2.70
2018-05-14T02:22:58.213Z,2.83
2018-05-14T02:25:26.360Z,3.17
2018-05-14T02:27:54.467Z,3.53
2018-05-14T02:30:22.606Z,3.12
2018-05-14T02:32:50.724Z,3.22
2018-05-14T02:35:19.606Z,3.37
2018-05-14T02:37:47.747Z,3.00
2018-05-14T02:40:15.852Z,2.70
2018-05-14T02:42:43.949Z,3.20
2018-05-14T02:45:12.068Z,2.95
2018-05-14T02:47:40.194Z,3.37
2018-05-14T02:50:09.834Z,3.53
2018-05-14T02:52:38.711Z,3.20
2018-05-14T02:55:06.810Z,3.10
2018-05-14T02:57:35.713Z,3.60
2018-05-14T03:00:03.905Z,3.30
2018-05-14T03:02:32.039Z,2.97
2018-05-14T03:05:00.295Z,3.10
2018-05-14T03:07:28.389Z,3.03
2018-05-14T03:09:56.504Z,3.00
2018-05-14T03:12:24.618Z,3.25
2018-05-14T03:14:52.739Z,2.97
2018-05-14T03:17:21.625Z,3.30
2018-05-14T03:19:49.748Z,2.58
2018-05-14T03:22:17.875Z,3.00
2018-05-14T03:24:45.995Z,2.80
2018-05-14T03:27:14.117Z,3.08
2018-05-14T03:29:42.316Z,3.15
2018-05-14T03:32:10.389Z,3.67
2018-05-14T03:34:39.273Z,2.92
2018-05-14T03:37:07.408Z,3.30
2018-05-14T03:39:35.512Z,3.28
2018-05-14T03:42:03.636Z,3.10
2018-05-14T03:44:32.510Z,3.42
2018-05-14T03:47:00.641Z,3.70
2018-05-14T03:49:28.763Z,3.25
2018-05-14T03:51:56.876Z,3.15
2018-05-14T03:54:25.010Z,3.00
2018-05-14T03:56:53.144Z,3.53
2018-05-14T03:59:39.160Z,3.45
2018-05-14T04:02:26.189Z,3.90
2018-05-14T04:05:18.635Z,5.75
2018-05-14T04:07:47.534Z,9.02
2018-05-14T04:10:16.406Z,9.60
2018-05-14T04:12:44.517Z,6.53
2018-05-14T04:15:12.664Z,6.50
2018-05-14T04:17:40.762Z,6.35
2018-05-14T04:20:09.676Z,6.57
2018-05-14T04:22:37.812Z,6.80
2018-05-14T04:25:05.935Z,6.25
2018-05-14T04:27:34.047Z,5.47
2018-05-14T04:30:02.158Z,6.53
2018-05-14T04:32:31.046Z,7.32
2018-05-14T04:34:59.169Z,6.15
2018-05-14T04:37:27.357Z,5.18
2018-05-14T04:39:55.458Z,5.25
2018-05-14T04:42:23.581Z,5.25
2018-05-14T04:44:51.691Z,5.20
2018-05-14T04:47:19.832Z,4.30
2018-05-14T04:49:48.718Z,4.68
2018-05-14T04:52:17.587Z,4.15
2018-05-14T04:54:45.712Z,4.53
2018-05-14T04:57:13.829Z,4.28
2018-05-14T04:59:41.975Z,4.72
2018-05-14T05:02:10.082Z,4.25
2018-05-14T05:04:38.183Z,4.28
2018-05-14T05:07:06.314Z,4.32
2018-05-14T05:09:34.420Z,4.37
2018-05-14T05:12:02.534Z,4.95
2018-05-14T05:14:31.447Z,4.62
2018-05-14T05:16:59.564Z,4.93
2018-05-14T05:19:27.705Z,4.90
2018-05-14T05:21:55.816Z,4.80
2018-05-14T05:24:24.682Z,4.35
2018-05-14T05:26:52.788Z,4.12
2018-05-14T05:29:20.900Z,4.80
2018-05-14T05:31:49.807Z,4.28
2018-05-14T05:34:18.676Z,4.70
2018-05-14T05:36:46.772Z,4.53
2018-05-14T05:39:15.653Z,5.07
2018-05-14T05:41:43.757Z,4.65
2018-05-14T05:44:11.892Z,4.75
2018-05-14T05:46:40.026Z,4.68
2018-05-14T05:49:08.165Z,4.62
2018-05-14T05:51:36.296Z,4.95
2018-05-14T05:54:04.400Z,4.45
2018-05-14T05:56:32.521Z,4.32
2018-05-14T05:59:00.617Z,4.93
2018-05-14T06:01:28.746Z,4.18
2018-05-14T06:03:56.895Z,4.12
2018-05-14T06:06:25.069Z,4.72
2018-05-14T06:08:53.280Z,3.92
2018-05-14T06:11:21.392Z,4.00
2018-05-14T06:13:50.266Z,4.07
2018-05-14T06:16:19.160Z,3.90
2018-05-14T06:18:48.086Z,4.25
2018-05-14T06:21:17.087Z,3.65
2018-05-14T06:23:45.194Z,4.25
2018-05-14T06:26:13.334Z,4.30
2018-05-14T06:28:41.519Z,4.53
2018-05-14T06:31:09.635Z,4.22
2018-05-14T06:33:37.764Z,4.50
2018-05-14T06:36:05.881Z,4.37
2018-05-14T06:38:33.977Z,5.53
2018-05-14T06:41:02.864Z,4.65
2018-05-14T06:43:31.020Z,4.32
2018-05-14T06:45:59.132Z,3.90
2018-05-14T06:48:27.254Z,3.92
2018-05-14T06:50:55.362Z,4.20
2018-05-14T06:53:23.489Z,4.20
2018-05-14T06:55:52.358Z,4.47
2018-05-14T06:58:20.486Z,4.68
2018-05-14T07:00:48.605Z,4.70
2018-05-14T07:03:16.715Z,4.93
2018-05-14T07:05:44.865Z,4.55
2018-05-14T07:08:12.978Z,5.18
2018-05-14T07:10:41.097Z,5.10
2018-05-14T07:13:09.239Z,5.20
2018-05-14T07:15:37.349Z,5.03
2018-05-14T07:18:05.564Z,5.07
2018-05-14T07:20:34.430Z,4.37
2018-05-14T07:23:02.547Z,5.25
2018-05-14T07:25:30.759Z,5.37
2018-05-14T07:27:59.583Z,5.10
2018-05-14T07:30:27.697Z,4.35
2018-05-14T07:32:56.593Z,4.47
2018-05-14T07:35:25.470Z,4.10
2018-05-14T07:37:53.587Z,5.07
2018-05-14T07:40:21.729Z,4.25
2018-05-14T07:42:50.609Z,4.97
2018-05-14T07:45:18.769Z,5.00
2018-05-14T07:47:46.878Z,4.82
2018-05-14T07:50:14.982Z,4.57
2018-05-14T07:52:43.093Z,4.50
2018-05-14T07:55:11.211Z,4.65
2018-05-14T07:57:40.107Z,4.30
2018-05-14T08:00:08.967Z,4.37
2018-05-14T08:02:37.088Z,4.87
2018-05-14T08:05:05.980Z,4.45
2018-05-14T08:07:34.859Z,4.05
2018-05-14T08:10:04.471Z,4.97
2018-05-14T08:12:33.365Z,4.25
2018-05-14T08:15:03.892Z,4.25
2018-05-14T08:17:32.017Z,4.60
2018-05-14T08:20:00.113Z,4.30
2018-05-14T08:22:28.221Z,4.47
2018-05-14T08:24:56.351Z,4.20
2018-05-14T08:27:24.457Z,4.93
2018-05-14T08:29:52.559Z,4.25
2018-05-14T08:32:20.705Z,4.30
2018-05-14T08:34:48.820Z,4.70
2018-05-14T08:37:16.934Z,4.85
2018-05-14T08:39:45.054Z,4.80
2018-05-14T08:42:13.169Z,4.57
2018-05-14T08:44:42.049Z,5.07
2018-05-14T08:47:10.947Z,4.55
2018-05-14T08:49:39.858Z,4.45
2018-05-14T08:52:08.731Z,4.07
2018-05-14T08:54:37.681Z,4.65
2018-05-14T08:57:06.516Z,3.80
2018-05-14T08:59:34.628Z,4.40
2018-05-14T09:02:02.728Z,3.65
2018-05-14T09:04:30.839Z,4.40
2018-05-14T09:06:58.941Z,4.28
2018-05-14T09:09:27.836Z,4.10
2018-05-14T09:11:56.703Z,3.95
2018-05-14T09:14:24.809Z,4.10
2018-05-14T09:16:53.732Z,4.57
2018-05-14T09:19:21.894Z,4.75
2018-05-14T09:21:49.957Z,4.75
2018-05-14T09:24:18.838Z,3.95
2018-05-14T09:26:47.729Z,3.78
2018-05-14T09:29:15.849Z,3.95
2018-05-14T09:31:43.948Z,3.47
2018-05-14T09:34:12.053Z,3.37
2018-05-14T09:36:40.193Z,3.35
2018-05-14T09:39:08.305Z,3.08
2018-05-14T09:41:36.422Z,3.20
2018-05-14T09:44:04.526Z,3.40
2018-05-14T09:46:32.632Z,3.05
2018-05-14T09:49:00.756Z,3.03
2018-05-14T09:51:28.848Z,2.60
2018-05-14T09:53:56.945Z,3.15
2018-05-14T09:56:25.062Z,2.78
2018-05-14T09:58:53.938Z,3.10
2018-05-14T10:01:22.083Z,3.22
2018-05-14T10:03:50.186Z,3.12
2018-05-14T10:06:18.293Z,2.62
2018-05-14T10:08:47.182Z,2.85
2018-05-14T10:11:16.060Z,2.47
2018-05-14T10:13:44.193Z,2.50
2018-05-14T10:16:12.305Z,2.40
2018-05-14T10:18:40.476Z,2.35
2018-05-14T10:21:09.315Z,2.42
2018-05-14T10:23:38.192Z,2.37
2018-05-14T10:26:07.066Z,2.65
2018-05-14T10:28:35.181Z,2.60
2018-05-14T10:31:04.050Z,2.65
2018-05-14T10:33:32.181Z,2.20
2018-05-14T10:36:00.298Z,2.50
2018-05-14T10:38:28.403Z,2.50
2018-05-14T10:40:57.304Z,2.90
2018-05-14T10:43:26.175Z,2.45
2018-05-14T10:45:54.286Z,2.50
2018-05-14T10:48:22.424Z,2.22
2018-05-14T10:50:50.519Z,2.40
2018-05-14T10:53:19.396Z,2.53
2018-05-14T10:55:47.517Z,2.70
2018-05-14T10:58:15.623Z,2.45
2018-05-14T11:00:43.748Z,2.45
2018-05-14T11:03:12.627Z,2.17
2018-05-14T11:05:40.742Z,2.12
2018-05-14T11:08:08.856Z,2.40
2018-05-14T11:10:37.043Z,2.45
2018-05-14T11:13:05.843Z,2.45
2018-05-14T11:15:33.971Z,2.30
2018-05-14T11:18:02.094Z,2.10
2018-05-14T11:20:30.202Z,2.20
2018-05-14T11:22:59.088Z,2.35
2018-05-14T11:25:27.989Z,2.15
2018-05-14T11:27:56.982Z,2.17
2018-05-14T11:30:25.764Z,2.12
2018-05-14T11:32:53.871Z,2.10
2018-05-14T11:35:22.074Z,2.08
2018-05-14T11:37:50.121Z,1.92
2018-05-14T11:40:18.239Z,1.83
2018-05-14T11:42:46.337Z,1.80
2018-05-14T11:45:15.224Z,1.87
2018-05-14T11:47:43.344Z,1.95
2018-05-14T11:50:11.465Z,1.90
2018-05-14T11:52:39.566Z,1.65
2018-05-14T11:55:07.699Z,2.17
2018-05-14T11:57:35.806Z,1.67
2018-05-14T12:00:03.949Z,2.15
2018-05-14T12:02:32.066Z,2.08
2018-05-14T12:05:00.221Z,1.77
2018-05-14T12:07:28.334Z,1.73
2018-05-14T12:09:56.451Z,1.77
2018-05-14T12:12:24.553Z,1.83
2018-05-14T12:14:52.676Z,2.20
2018-05-14T12:17:21.556Z,1.98
2018-05-14T12:19:49.703Z,2.20
2018-05-14T12:22:17.859Z,1.50
2018-05-14T12:24:45.975Z,2.00
2018-05-14T12:27:14.125Z,1.83
2018-05-14T12:29:42.251Z,2.08
2018-05-14T12:32:11.185Z,1.70
2018-05-14T12:34:39.245Z,2.03
2018-05-14T12:37:08.162Z,2.00
2018-05-14T12:39:36.273Z,1.98
2018-05-14T12:42:11.096Z,2.05
2018-05-14T12:44:39.237Z,1.70
2018-05-14T12:47:07.385Z,1.62
2018-05-14T12:49:36.288Z,1.77
2018-05-14T12:52:05.160Z,1.95
2018-05-14T12:54:33.285Z,1.52
2018-05-14T12:57:01.395Z,2.10
2018-05-14T12:59:29.513Z,1.73
2018-05-14T13:01:58.386Z,1.42
2018-05-14T13:04:26.498Z,1.45
2018-05-14T13:06:54.697Z,1.90
2018-05-14T13:09:22.745Z,2.05
2018-05-14T13:11:51.617Z,1.70
2018-05-14T13:14:19.736Z,1.85
2018-05-14T13:16:47.845Z,2.30
2018-05-14T13:19:16.064Z,2.28
2018-05-14T13:21:44.090Z,2.33
2018-05-14T13:24:12.217Z,2.22
2018-05-14T13:26:41.096Z,2.10
2018-05-14T13:29:09.234Z,2.00
2018-05-14T13:31:37.505Z,2.25
2018-05-14T13:34:05.609Z,2.12
2018-05-14T13:36:33.723Z,1.50
2018-05-14T13:39:02.601Z,2.10
2018-05-14T13:41:30.735Z,1.73
2018-05-14T13:43:58.833Z,2.00
2018-05-14T13:46:26.932Z,1.90
2018-05-14T13:48:55.081Z,1.60
2018-05-14T13:51:23.185Z,1.80
2018-05-14T13:53:51.281Z,2.10
2018-05-14T13:56:20.163Z,1.83
2018-05-14T13:58:49.037Z,2.15
2018-05-14T14:01:17.160Z,1.40
2018-05-14T14:03:45.330Z,2.10
2018-05-14T14:06:14.260Z,1.80
2018-05-14T14:08:42.365Z,1.67
2018-05-14T14:11:10.524Z,2.08
2018-05-14T14:13:38.623Z,1.80
2018-05-14T14:16:06.738Z,1.60
2018-05-14T14:18:35.604Z,1.60
2018-05-14T14:21:03.713Z,1.90
2018-05-14T14:23:32.728Z,2.17
2018-05-14T14:26:01.471Z,1.92
2018-05-14T14:28:29.585Z,2.15
2018-05-14T14:30:57.696Z,1.75
2018-05-14T14:33:25.818Z,2.20
2018-05-14T14:35:54.772Z,1.98
2018-05-14T14:38:23.641Z,2.10
2018-05-14T14:40:51.777Z,1.80
2018-05-14T14:43:20.702Z,1.90
2018-05-14T14:45:48.817Z,2.22
2018-05-14T14:48:16.930Z,1.85
2018-05-14T14:50:45.072Z,2.72
2018-05-14T14:53:13.177Z,2.00
2018-05-14T14:55:41.305Z,1.90
2018-05-14T14:58:09.424Z,1.90
2018-05-14T15:00:37.602Z,1.42
2018-05-14T15:03:05.717Z,1.80
2018-05-14T15:05:34.641Z,1.67
2018-05-14T15:08:02.775Z,2.00
2018-05-14T15:10:31.693Z,1.75
2018-05-14T15:13:00.588Z,1.90
2018-05-14T15:15:28.693Z,1.73
2018-05-14T15:17:56.810Z,2.20
2018-05-14T15:20:24.921Z,1.80
2018-05-14T15:22:53.053Z,1.95
2018-05-14T15:25:21.208Z,2.20
2018-05-14T15:27:50.103Z,1.67
2018-05-14T15:30:18.211Z,1.55
2018-05-14T15:32:46.339Z,1.95
2018-05-14T15:35:14.447Z,1.90
2018-05-14T15:37:42.568Z,1.75
2018-05-14T15:40:11.433Z,1.90
2018-05-14T15:42:39.584Z,1.95
2018-05-14T15:45:07.691Z,1.67
2018-05-14T15:47:35.808Z,1.70
2018-05-14T15:50:04.060Z,1.65
2018-05-14T15:52:32.137Z,1.73
2018-05-14T15:55:01.008Z,2.00
2018-05-14T15:57:29.117Z,1.80
2018-05-14T15:59:58.008Z,1.90
2018-05-14T16:02:26.891Z,1.90
2018-05-14T16:04:55.031Z,1.92
2018-05-14T16:07:23.168Z,1.90
2018-05-14T16:09:52.049Z,1.85
2018-05-14T16:12:20.943Z,1.65
2018-05-14T16:14:50.007Z,1.50
2018-05-14T16:17:18.121Z,1.73
2018-05-14T16:19:47.018Z,2.00
2018-05-14T16:22:15.891Z,1.62
2018-05-14T16:24:43.997Z,1.90
2018-05-14T16:27:12.877Z,2.00
2018-05-14T16:29:41.759Z,1.92
2018-05-14T16:32:09.895Z,2.17
2018-05-14T16:34:38.006Z,2.00
2018-05-14T16:37:06.136Z,2.05
2018-05-14T16:39:34.259Z,2.20
2018-05-14T16:42:02.501Z,2.37
2018-05-14T16:44:30.521Z,2.30
2018-05-14T16:46:58.644Z,2.17
2018-05-14T16:49:26.804Z,2.30
2018-05-14T16:51:55.714Z,2.28
2018-05-14T16:54:23.865Z,2.42
2018-05-14T16:56:52.754Z,2.28
2018-05-14T16:59:21.653Z,2.50
2018-05-14T17:01:50.500Z,2.60
2018-05-14T17:04:18.631Z,2.35
2018-05-14T17:06:47.517Z,2.15
2018-05-14T17:09:15.620Z,2.62
2018-05-14T17:11:43.782Z,2.42
2018-05-14T17:14:12.659Z,2.30
2018-05-14T17:16:40.809Z,2.33
2018-05-14T17:19:09.684Z,2.25
2018-05-14T17:21:37.819Z,2.08
2018-05-14T17:24:05.937Z,2.55
2018-05-14T17:26:34.091Z,2.15
2018-05-14T17:29:03.459Z,2.62
2018-05-14T17:31:31.564Z,2.30
2018-05-14T17:34:00.448Z,2.28
2018-05-14T17:36:28.563Z,2.10
2018-05-14T17:38:56.669Z,2.53
2018-05-14T17:41:24.792Z,2.20
2018-05-14T17:43:53.691Z,2.67
2018-05-14T17:46:22.558Z,2.65
2018-05-14T17:48:50.685Z,2.37
2018-05-14T17:51:18.785Z,2.03
2018-05-14T17:53:46.905Z,2.20
2018-05-14T17:56:15.795Z,2.30
2018-05-14T17:58:43.944Z,2.83
2018-05-14T18:01:12.097Z,2.60
2018-05-14T18:03:40.230Z,2.30
2018-05-14T18:06:09.118Z,2.60
2018-05-14T18:08:37.237Z,2.62
2018-05-14T18:11:05.441Z,2.22
2018-05-14T18:13:34.286Z,2.70
2018-05-14T18:16:03.171Z,2.67
2018-05-14T18:18:31.280Z,2.50
2018-05-14T18:21:00.330Z,1.98
2018-05-14T18:23:28.458Z,2.40
2018-05-14T18:26:02.050Z,2.60
2018-05-14T18:28:35.582Z,2.40
2018-05-14T18:31:03.697Z,2.30
2018-05-14T18:33:31.867Z,2.50
2018-05-14T18:35:59.994Z,2.47
2018-05-14T18:38:28.112Z,2.30
2018-05-14T18:40:56.917Z,2.55
2018-05-14T18:43:25.038Z,2.53
2018-05-14T18:45:53.168Z,2.28
2018-05-14T18:48:21.282Z,2.22
2018-05-14T18:50:50.177Z,2.50
2018-05-14T18:53:19.122Z,2.40
2018-05-14T18:55:47.248Z,2.70
2018-05-14T18:58:16.130Z,2.37
2018-05-14T19:00:45.053Z,2.50
2018-05-14T19:03:13.165Z,2.78
2018-05-14T19:05:41.290Z,2.72
2018-05-14T19:08:10.172Z,2.15
2018-05-14T19:10:45.636Z,2.42
2018-05-14T19:13:13.757Z,2.33
2018-05-14T19:15:47.467Z,2.87
2018-05-14T19:18:15.606Z,2.58
2018-05-14T19:20:43.704Z,2.30
2018-05-14T19:23:17.478Z,2.50
2018-05-14T19:25:45.597Z,2.20
2018-05-14T19:28:19.424Z,2.00
2018-05-14T19:30:47.526Z,2.10
2018-05-14T19:33:21.944Z,2.03
2018-05-14T19:35:56.464Z,2.20
2018-05-14T19:38:24.525Z,2.40
2018-05-14T19:40:52.634Z,2.28
2018-05-14T19:43:21.529Z,2.45
2018-05-14T19:45:50.401Z,2.00
2018-05-14T19:48:18.529Z,2.30
2018-05-14T19:50:46.670Z,2.30
2018-05-14T19:53:15.557Z,2.15
2018-05-14T19:55:44.443Z,2.70
2018-05-14T19:58:12.580Z,2.20
2018-05-14T20:00:40.692Z,2.62
2018-05-14T20:03:08.835Z,2.60
2018-05-14T20:05:36.945Z,2.22
2018-05-14T20:08:05.064Z,2.42
2018-05-14T20:10:33.201Z,2.50
2018-05-14T20:13:01.327Z,2.10
2018-05-14T20:15:29.456Z,2.10
2018-05-14T20:17:57.584Z,2.08
2018-05-14T20:20:25.713Z,2.47
2018-05-14T20:22:53.813Z,2.08
2018-05-14T20:25:22.756Z,2.10
2018-05-14T20:27:50.874Z,2.10
2018-05-14T20:30:19.769Z,2.50
2018-05-14T20:32:48.696Z,2.08
2018-05-14T20:35:16.785Z,2.40
2018-05-14T20:37:44.907Z,2.33
2018-05-14T20:40:13.805Z,2.20
2018-05-14T20:42:41.919Z,2.30
2018-05-14T20:45:10.051Z,2.10
2018-05-14T20:47:38.204Z,2.40
2018-05-14T20:50:06.346Z,2.40
2018-05-14T20:52:34.449Z,2.33
2018-05-14T20:55:02.566Z,2.22
2018-05-14T20:57:30.669Z,2.58
2018-05-14T20:59:59.546Z,1.98
2018-05-14T21:02:27.660Z,2.22
2018-05-14T21:04:55.781Z,2.42
2018-05-14T21:07:23.917Z,2.25
2018-05-14T21:09:52.061Z,2.40
2018-05-14T21:12:20.938Z,2.42
2018-05-14T21:14:49.128Z,2.53
2018-05-14T21:17:17.311Z,2.22
2018-05-14T21:19:46.198Z,2.00
2018-05-14T21:22:14.293Z,2.25
2018-05-14T21:24:43.191Z,2.45
2018-05-14T21:27:12.072Z,2.50
2018-05-14T21:29:40.969Z,2.35
2018-05-14T21:32:09.835Z,2.00
2018-05-14T21:34:37.967Z,2.75
2018-05-14T21:37:06.084Z,2.72
2018-05-14T21:39:34.176Z,2.53
2018-05-14T21:42:02.313Z,2.50
2018-05-14T21:44:30.421Z,2.65
2018-05-14T21:46:58.533Z,2.53
2018-05-14T21:49:27.425Z,2.25
2018-05-14T21:51:56.301Z,2.15
2018-05-14T21:54:24.404Z,2.30
2018-05-14T21:56:53.282Z,2.12
2018-05-14T21:59:21.395Z,2.78
2018-05-14T22:01:49.612Z,2.50
2018-05-14T22:04:17.634Z,2.42
2018-05-14T22:06:46.510Z,2.10
2018-05-14T22:09:15.391Z,2.17
2018-05-14T22:11:43.496Z,2.70
2018-05-14T22:14:12.373Z,2.53
2018-05-14T22:16:40.494Z,2.17
2018-05-14T22:19:08.614Z,2.10
2018-05-14T22:21:36.721Z,2.30
2018-05-14T22:24:05.601Z,2.42
2018-05-14T22:26:34.467Z,2.85
2018-05-14T22:29:02.629Z,2.17
2018-05-14T22:31:30.733Z,2.67
2018-05-14T22:33:58.853Z,2.70
2018-05-14T22:36:26.984Z,2.75
2018-05-14T22:38:55.089Z,2.62
2018-05-14T22:41:23.981Z,2.25
2018-05-14T22:43:52.853Z,2.40
2018-05-14T22:46:20.953Z,2.50
2018-05-14T22:48:49.834Z,2.55
2018-05-14T22:51:17.932Z,2.65
2018-05-14T22:53:46.824Z,2.42
2018-05-14T22:56:15.706Z,2.53
2018-05-14T22:58:43.827Z,2.67
2018-05-14T23:01:11.952Z,2.58
2018-05-14T23:03:40.061Z,2.50
2018-05-14T23:06:08.937Z,2.50
2018-05-14T23:08:37.043Z,2.80
2018-05-14T23:11:05.156Z,2.95
2018-05-14T23:13:33.258Z,2.65
2018-05-14T23:16:02.153Z,2.70
2018-05-14T23:18:30.263Z,2.85
2018-05-14T23:20:58.395Z,3.05
2018-05-14T23:23:26.492Z,3.20
2018-05-14T23:25:54.602Z,3.25
2018-05-14T23:28:22.718Z,2.83
2018-05-14T23:30:50.823Z,3.05
2018-05-14T23:33:18.949Z,2.70
2018-05-14T23:35:47.057Z,3.00
2018-05-14T23:38:15.163Z,3.10
2018-05-14T23:40:44.071Z,3.37
2018-05-14T23:43:12.236Z,3.53
2018-05-14T23:45:41.111Z,3.17
2018-05-14T23:48:09.223Z,3.30
2018-05-14T23:50:37.331Z,3.42
2018-05-14T23:53:05.457Z,2.50
2018-05-14T23:55:34.323Z,2.78
2018-05-14T23:58:02.436Z,3.08
